This is the latest recevied weather packets stored in our database for station/object DG5MNJ. If no packets are shown the sender has not sent any weather packets the latest 10 day(s).
| Time | Temp. | Humidity | Pressure | Rain* | Wind** | Luminosity | Snow |
|---|---|---|---|---|---|---|---|
| 1777023602 | 16.67° C | 29% | 1018.3 hPa | 0 mm | - | 827 W/m² | - |
| 1777022702 | 17.22° C | 32% | 1018.6 hPa | 0 mm | - | 797 W/m² | - |
| 1777021802 | 16.11° C | 33% | 1018.5 hPa | 0 mm | - | 780 W/m² | - |
| 1777021502 | 15.56° C | 34% | 1018.7 hPa | 0 mm | - | 772 W/m² | - |
| 1777020903 | 16.11° C | 35% | 1018.6 hPa | 0 mm | - | 754 W/m² | - |
| 1777020602 | 16.11° C | 34% | 1018.6 hPa | 0 mm | - | 742 W/m² | - |
| 1777019102 | 15.56° C | 37% | 1018.6 hPa | 0 mm | - | 685 W/m² | - |
| 1777018822 | 15° C | 37% | 1018.8 hPa | 0 mm | - | 675 W/m² | - |
| 1777017304 | 14.44° C | 39% | 1019.1 hPa | 0 mm | - | 624 W/m² | - |
| 1777015502 | 13.33° C | 43% | 1019 hPa | 0 mm | - | 551 W/m² | - |
| 1777014902 | 12.78° C | 44% | 1019.1 hPa | 0 mm | - | 509 W/m² | - |
| 1777013402 | 11.67° C | 47% | 1019.1 hPa | 0 mm | - | 429 W/m² | - |
| 1777011902 | 10° C | 50% | 1019.1 hPa | 0 mm | - | 329 W/m² | - |
| 1777011602 | 10° C | 51% | 1019.1 hPa | 0 mm | - | 315 W/m² | - |
| 1777011002 | 9.44° C | 52% | 1019.2 hPa | 0 mm | - | 306 W/m² | - |
| 1777007702 | 5.56° C | 61% | 1019.3 hPa | 0 mm | - | 134 W/m² | - |
| 1777005002 | 3.89° C | 66% | 1019.1 hPa | 0 mm | - | 24 W/m² | - |
| 1777003202 | 3.89° C | 65% | 1019.1 hPa | 0 mm | - | 0 W/m² | - |
| 1776999903 | 3.89° C | 64% | 1019.1 hPa | 0 mm | - | 0 W/m² | - |
| 1776998422 | 4.44° C | 63% | 1019.2 hPa | 0 mm | - | 0 W/m² | - |
| 1776997803 | 4.44° C | 63% | 1019.2 hPa | 0 mm | - | 0 W/m² | - |
| 1776994822 | 5° C | 62% | 1019.5 hPa | 0 mm | - | 0 W/m² | - |
| 1776992402 | 5.56° C | 60% | 1019.9 hPa | 0 mm | - | 0 W/m² | - |
| 1776990322 | 5.56° C | 59% | 1020.1 hPa | 0 mm | - | 0 W/m² | - |
| 1776989722 | 5.56° C | 58% | 1020.1 hPa | 0 mm | - | 0 W/m² | - |
* Rain latest hour (hover to see other rain measurements)
** Current wind speed in m/s (hover to see current wind gust speed)